Back to Top

Language: 

My Weather Underground Personal Weather Station Historical Data with Graphs...

Delerius Weather Station Historical Data
Daily Summary for January 20, 2018 Units:  Metric    English   Both
« Previous Day
Next Day »
Daily Weekly Monthly Yearly Custom
  High: Low: Average:
Temperature: 3.6 °C -0.8 °C 1.9 °C
Dew Point: 2.9 °C -1.8 °C 0.7 °C
Humidity: 95 % 88 % 92 %
Wind Speed: 24.1 km/h 0 km/h 4.5 km/h
Wind Gust: 38.6 km/h - -
Wind:- - WNW
Pressure: 1011.1 hPa 999.2 hPa -
Precipitation: 0.51 mm    
Historical Graphs
 
 
Tabular Data for January 20, 2018
Time Temperature Dew Point Pressure Wind Wind Speed Wind Gust Humidity Rainfall Rate (Hourly) solar Conditions
00:02 2.5 °C 1.2 °C 1003.6 hPa West 17.7 km/h 30.6 km/h 91 % 0 mm 0 W/m2
00:07 2.6 °C 1.3 °C 1003.6 hPa WNW 17.7 km/h 29 km/h 91 % 0 mm 0 W/m2
00:12 2.6 °C 1.3 °C 1003.6 hPa West 17.7 km/h 24.1 km/h 91 % 0 mm 0 W/m2
00:17 2.6 °C 1.1 °C 1003.6 hPa West 16.1 km/h 24.1 km/h 90 % 0 mm 0 W/m2
00:22 2.7 °C 1.2 °C 1003.3 hPa WNW 16.1 km/h 29 km/h 90 % 0 mm 0 W/m2
00:27 2.6 °C 1.1 °C 1003.3 hPa WNW 16.1 km/h 24.1 km/h 90 % 0 mm 0 W/m2
00:32 2.6 °C 1.1 °C 1003.3 hPa West 16.1 km/h 30.6 km/h 90 % 0 mm 0 W/m2
00:37 2.6 °C 1.1 °C 1003.3 hPa West 14.5 km/h 20.9 km/h 90 % 0 mm 0 W/m2
00:42 2.6 °C 1.1 °C 1003.3 hPa West 14.5 km/h 22.5 km/h 90 % 0 mm 0 W/m2
00:47 2.7 °C 1.2 °C 1003.3 hPa West 16.1 km/h 25.7 km/h 90 % 0 mm 0 W/m2
00:52 2.7 °C 1.1 °C 1003.3 hPa West 16.1 km/h 24.1 km/h 89 % 0 mm 0 W/m2
00:57 2.7 °C 1.1 °C 1003.3 hPa West 16.1 km/h 24.1 km/h 89 % 0 mm 0 W/m2
01:02 2.6 °C 0.9 °C 1002.9 hPa West 12.9 km/h 20.9 km/h 89 % 0 mm 0 W/m2
01:07 2.6 °C 0.9 °C 1002.9 hPa West 20.9 km/h 32.2 km/h 89 % 0 mm 0 W/m2
01:12 2.6 °C 0.9 °C 1002.9 hPa West 24.1 km/h 38.6 km/h 89 % 0 mm 0 W/m2
01:17 2.6 °C 0.9 °C 1002.9 hPa West 16.1 km/h 29 km/h 89 % 0 mm 0 W/m2
01:23 2.6 °C 0.9 °C 1002.9 hPa West 17.7 km/h 30.6 km/h 89 % 0 mm 0 W/m2
01:28 2.6 °C 0.9 °C 1002.9 hPa West 19.3 km/h 32.2 km/h 89 % 0 mm 0 W/m2
01:33 2.5 °C 0.9 °C 1002.9 hPa West 16.1 km/h 22.5 km/h 89 % 0 mm 0 W/m2
01:38 2.4 °C 0.8 °C 1002.9 hPa West 9.7 km/h 16.1 km/h 89 % 0 mm 0 W/m2
01:43 2.3 °C 0.7 °C 1002.6 hPa WSW 12.9 km/h 22.5 km/h 89 % 0 mm 0 W/m2
01:48 2.2 °C 0.6 °C 1002.6 hPa WSW 9.7 km/h 16.1 km/h 89 % 0 mm 0 W/m2
01:53 2.2 °C 0.6 °C 1002.6 hPa WSW 11.3 km/h 17.7 km/h 89 % 0 mm 0 W/m2
01:58 2.3 °C 0.7 °C 1002.6 hPa SW 11.3 km/h 17.7 km/h 89 % 0 mm 0 W/m2
02:03 2.3 °C 0.7 °C 1002.6 hPa WSW 8 km/h 14.5 km/h 89 % 0 mm 0 W/m2
02:08 2.4 °C 0.8 °C 1002.6 hPa WSW 8 km/h 20.9 km/h 89 % 0 mm 0 W/m2
02:13 2.3 °C 0.7 °C 1002.6 hPa WSW 4.8 km/h 11.3 km/h 89 % 0 mm 0 W/m2
02:18 2.3 °C 0.7 °C 1002.6 hPa West 3.2 km/h 6.4 km/h 89 % 0 mm 0 W/m2
02:23 2.3 °C 0.7 °C 1002.3 hPa West 3.2 km/h 11.3 km/h 89 % 0 mm 0 W/m2
02:28 2.2 °C 0.6 °C 1002.3 hPa West 1.6 km/h 6.4 km/h 89 % 0 mm 0 W/m2
02:33 2.2 °C 0.6 °C 1002.3 hPa WSW 1.6 km/h 11.3 km/h 89 % 0 mm 0 W/m2
02:38 2.1 °C 0.5 °C 1002.3 hPa WSW 6.4 km/h 11.3 km/h 89 % 0 mm 0 W/m2
02:43 2.1 °C 0.6 °C 1002.3 hPa West 9.7 km/h 16.1 km/h 90 % 0 mm 0 W/m2
02:48 2.1 °C 0.5 °C 1002.3 hPa WSW 6.4 km/h 9.7 km/h 89 % 0 mm 0 W/m2
02:53 2.1 °C 0.5 °C 1001.9 hPa West 8 km/h 12.9 km/h 89 % 0 mm 0 W/m2
02:58 2.1 °C 0.5 °C 1001.9 hPa West 6.4 km/h 8 km/h 89 % 0 mm 0 W/m2
03:03 2.1 °C 0.5 °C 1001.9 hPa West 6.4 km/h 9.7 km/h 89 % 0 mm 0 W/m2
03:08 2 °C 0.4 °C 1001.9 hPa West 9.7 km/h 14.5 km/h 89 % 0 mm 0 W/m2
03:13 2 °C 0.4 °C 1001.6 hPa West 9.7 km/h 16.1 km/h 89 % 0 mm 0 W/m2
03:18 2 °C 0.4 °C 1001.6 hPa West 9.7 km/h 14.5 km/h 89 % 0 mm 0 W/m2
03:23 2.1 °C 0.5 °C 1001.9 hPa West 8 km/h 12.9 km/h 89 % 0 mm 0 W/m2
03:28 2.1 °C 0.5 °C 1001.6 hPa West 8 km/h 11.3 km/h 89 % 0 mm 0 W/m2
03:33 2 °C 0.4 °C 1001.6 hPa West 6.4 km/h 9.7 km/h 89 % 0 mm 0 W/m2
03:38 1.9 °C 0.3 °C 1001.6 hPa West 6.4 km/h 12.9 km/h 89 % 0 mm 0 W/m2
03:43 2 °C 0.4 °C 1001.6 hPa WSW 6.4 km/h 11.3 km/h 89 % 0 mm 0 W/m2
03:48 2.1 °C 0.5 °C 1001.6 hPa WSW 1.6 km/h 6.4 km/h 89 % 0 mm 0 W/m2
03:53 2 °C 0.4 °C 1001.6 hPa Calm   1.6 km/h 89 % 0 mm 0 W/m2
03:58 1.8 °C 0.2 °C 1001.6 hPa Calm     89 % 0 mm 0 W/m2
04:03 1.7 °C -0.1 °C 1001.6 hPa Calm     88 % 0 mm 0 W/m2
04:08 1.6 °C 0 °C 1001.2 hPa Calm   1.6 km/h 89 % 0 mm 0 W/m2
04:13 1.5 °C -0.1 °C 1001.2 hPa Calm     89 % 0 mm 0 W/m2
04:18 1.4 °C -0.2 °C 1001.2 hPa Calm   1.6 km/h 89 % 0 mm 0 W/m2
04:23 1.3 °C -0.2 °C 1001.2 hPa Calm     90 % 0 mm 0 W/m2
04:28 1.3 °C -0.2 °C 1000.9 hPa Calm     90 % 0 mm 0 W/m2
04:33 1.3 °C -0.2 °C 1000.9 hPa Calm   3.2 km/h 90 % 0 mm 0 W/m2
04:38 1.3 °C -0.2 °C 1000.9 hPa WSW 1.6 km/h 4.8 km/h 90 % 0 mm 0 W/m2
04:43 1.3 °C 0 °C 1000.9 hPa West 3.2 km/h 8 km/h 91 % 0 mm 0 W/m2
04:49 1.3 °C 0 °C 1000.9 hPa West 3.2 km/h 6.4 km/h 91 % 0 mm 0 W/m2
04:54 1.3 °C 0 °C 1000.9 hPa West 3.2 km/h 8 km/h 91 % 0 mm 0 W/m2
04:59 1.3 °C 0 °C 1000.9 hPa West 3.2 km/h 8 km/h 91 % 0 mm 0 W/m2
05:04 1.3 °C 0 °C 1000.6 hPa Calm   3.2 km/h 91 % 0 mm 0 W/m2
05:09 1.3 °C 0 °C 1000.6 hPa SW 3.2 km/h 8 km/h 91 % 0 mm 0 W/m2
05:14 1.4 °C 0.1 °C 1000.2 hPa WSW 3.2 km/h 8 km/h 91 % 0 mm 0 W/m2
05:19 1.4 °C 0.1 °C 1000.2 hPa WSW 6.4 km/h 11.3 km/h 91 % 0 mm 0 W/m2
05:24 1.6 °C 0.3 °C 1000.2 hPa SW 8 km/h 12.9 km/h 91 % 0 mm 0 W/m2
05:29 1.7 °C 0.4 °C 1000.2 hPa WSW 8 km/h 14.5 km/h 91 % 0 mm 0 W/m2
05:34 1.8 °C 0.5 °C 1000.6 hPa WSW 9.7 km/h 16.1 km/h 91 % 0 mm 0 W/m2
05:39 2 °C 0.7 °C 1000.6 hPa WSW 9.7 km/h 16.1 km/h 91 % 0 mm 0 W/m2
05:44 2.1 °C 0.8 °C 1000.6 hPa WSW 9.7 km/h 12.9 km/h 91 % 0 mm 0 W/m2
05:49 2.1 °C 0.6 °C 1000.6 hPa WSW 9.7 km/h 11.3 km/h 90 % 0 mm 0 W/m2
05:54 2.1 °C 0.6 °C 1000.2 hPa West 3.2 km/h 6.4 km/h 90 % 0 mm 0 W/m2
05:59 2 °C 0.6 °C 1000.2 hPa West 3.2 km/h 6.4 km/h 90 % 0 mm 0 W/m2
06:04 1.9 °C 0.4 °C 1000.2 hPa West 3.2 km/h 8 km/h 90 % 0 mm 0 W/m2
06:09 1.8 °C 0.3 °C 1000.2 hPa West 3.2 km/h 8 km/h 90 % 0 mm 0 W/m2
06:14 1.8 °C 0.3 °C 999.9 hPa West 3.2 km/h 8 km/h 90 % 0 mm 0 W/m2
06:19 1.8 °C 0.5 °C 1000.2 hPa Calm   1.6 km/h 91 % 0 mm 0 W/m2
06:24 1.8 °C 0.5 °C 1000.2 hPa Calm   1.6 km/h 91 % 0 mm 0 W/m2
06:29 1.8 °C 0.5 °C 999.9 hPa West 1.6 km/h 6.4 km/h 91 % 0 mm 0 W/m2
06:34 1.8 °C 0.5 °C 1000.2 hPa West 1.6 km/h 4.8 km/h 91 % 0 mm 0 W/m2
06:39 1.7 °C 0.4 °C 1000.2 hPa Calm     91 % 0 mm 0 W/m2
06:44 1.7 °C 0.4 °C 999.9 hPa Calm     91 % 0 mm 0 W/m2
06:49 1.6 °C 0.3 °C 999.9 hPa Calm   3.2 km/h 91 % 0 mm 0 W/m2
06:54 1.6 °C 0.3 °C 999.9 hPa Calm   1.6 km/h 91 % 0 mm 0 W/m2
06:59 1.6 °C 0.3 °C 999.9 hPa Calm   4.8 km/h 91 % 0 mm 0 W/m2
07:04 1.7 °C 0.4 °C 999.9 hPa Calm   4.8 km/h 91 % 0 mm 0 W/m2
07:09 1.7 °C 0.4 °C 999.9 hPa Calm   1.6 km/h 91 % 0 mm 0 W/m2
07:14 1.7 °C 0.4 °C 999.5 hPa Calm     91 % 0 mm 0 W/m2
07:19 1.7 °C 0.4 °C 999.5 hPa Calm   3.2 km/h 91 % 0 mm 0 W/m2
07:24 1.7 °C 0.4 °C 999.5 hPa Calm     91 % 0 mm 0 W/m2
07:29 1.7 °C 0.4 °C 999.5 hPa West 1.6 km/h 4.8 km/h 91 % 0 mm 0 W/m2
07:35 1.6 °C 0.3 °C 999.5 hPa West 3.2 km/h 6.4 km/h 91 % 0 mm 0 W/m2
07:40 1.7 °C 0.6 °C 999.5 hPa West 4.8 km/h 11.3 km/h 92 % 0 mm 0 W/m2
07:45 1.7 °C 0.6 °C 999.5 hPa West 3.2 km/h 8 km/h 92 % 0 mm 0 W/m2
07:50 1.7 °C 0.6 °C 999.5 hPa Calm     92 % 0 mm 0 W/m2
07:55 1.7 °C 0.4 °C 999.5 hPa Calm     91 % 0 mm 0 W/m2
08:00 1.7 °C 0.6 °C 999.5 hPa Calm   3.2 km/h 92 % 0 mm 0 W/m2
08:05 1.7 °C 0.6 °C 999.5 hPa Calm     92 % 0 mm 0 W/m2
08:10 1.7 °C 0.6 °C 999.5 hPa Calm     92 % 0 mm 0 W/m2
08:15 1.7 °C 0.6 °C 999.5 hPa Calm     92 % 0 mm 0 W/m2
08:20 1.7 °C 0.6 °C 999.5 hPa Calm     92 % 0 mm 5 W/m2
08:25 1.7 °C 0.6 °C 999.5 hPa Calm     92 % 0 mm 5 W/m2
08:30 1.7 °C 0.6 °C 999.5 hPa Calm   3.2 km/h 92 % 0 mm 7 W/m2
08:35 1.7 °C 0.6 °C 999.2 hPa West 3.2 km/h 8 km/h 92 % 0 mm 11 W/m2
08:40 1.8 °C 0.6 °C 999.2 hPa West 3.2 km/h 8 km/h 92 % 0 mm 9 W/m2
08:45 1.9 °C 0.7 °C 999.2 hPa Calm     92 % 0 mm 9 W/m2
08:50 1.9 °C 0.7 °C 999.5 hPa Calm     92 % 0 mm 14 W/m2
08:55 1.9 °C 0.7 °C 999.5 hPa Calm     92 % 0 mm 21 W/m2
09:00 1.9 °C 0.7 °C 999.5 hPa Calm     92 % 0 mm 12 W/m2
09:05 1.9 °C 0.7 °C 999.5 hPa West 4.8 km/h 8 km/h 92 % 0 mm 14 W/m2
09:10 2 °C 0.8 °C 999.5 hPa West 3.2 km/h 8 km/h 92 % 0 mm 14 W/m2
09:15 2.1 °C 0.9 °C 999.5 hPa West 3.2 km/h 6.4 km/h 92 % 0 mm 25 W/m2
09:20 2.1 °C 0.9 °C 999.5 hPa Calm   3.2 km/h 92 % 0 mm 19 W/m2
09:25 2.1 °C 0.9 °C 999.5 hPa Calm     92 % 0 mm 23 W/m2
09:30 2.2 °C 1.1 °C 999.5 hPa Calm     92 % 0 mm 49 W/m2
09:35 2.2 °C 1.1 °C 999.5 hPa Calm     92 % 0 mm 35 W/m2
09:40 2.2 °C 1.1 °C 999.5 hPa Calm     92 % 0 mm 33 W/m2
09:45 2.2 °C 1.1 °C 999.5 hPa Calm     92 % 0 mm 51 W/m2
09:50 2.2 °C 1.1 °C 999.5 hPa Calm     92 % 0 mm 56 W/m2
09:55 2.3 °C 1.1 °C 999.5 hPa Calm     92 % 0 mm 51 W/m2
10:00 2.3 °C 1.1 °C 999.5 hPa Calm     92 % 0 mm 60 W/m2
10:05 2.4 °C 1.2 °C 999.5 hPa Calm     92 % 0 mm 42 W/m2
10:10 2.5 °C 1.3 °C 999.5 hPa Calm     92 % 0 mm 33 W/m2
10:15 2.5 °C 1.3 °C 999.9 hPa Calm     92 % 0 mm 33 W/m2
10:20 2.6 °C 1.4 °C 999.9 hPa Calm     92 % 0 mm 30 W/m2
10:26 2.6 °C 1.4 °C 999.5 hPa Calm     92 % 0 mm 28 W/m2
10:31 2.6 °C 1.4 °C 999.5 hPa Calm     92 % 0 mm 25 W/m2
10:36 2.6 °C 1.4 °C 999.9 hPa Calm     92 % 0 mm 26 W/m2
10:41 2.7 °C 1.6 °C 999.9 hPa Calm     92 % 0 mm 26 W/m2
10:46 2.7 °C 1.6 °C 999.9 hPa Calm     92 % 0 mm 26 W/m2
10:51 2.7 °C 1.6 °C 999.9 hPa Calm     92 % 0 mm 26 W/m2
10:56 2.7 °C 1.6 °C 999.9 hPa Calm     92 % 0 mm 37 W/m2
11:01 2.8 °C 1.6 °C 999.9 hPa Calm     92 % 0 mm 39 W/m2
11:06 2.8 °C 1.6 °C 999.9 hPa Calm     92 % 0 mm 33 W/m2
11:11 2.8 °C 1.6 °C 999.5 hPa Calm     92 % 0 mm 37 W/m2
11:16 2.9 °C 1.7 °C 999.5 hPa Calm     92 % 0 mm 58 W/m2
11:21 2.9 °C 1.7 °C 999.5 hPa Calm     92 % 0.25 mm 65 W/m2
11:26 2.9 °C 1.9 °C 999.5 hPa Calm     93 % 0.25 mm 69 W/m2
11:31 3 °C 2 °C 999.5 hPa Calm     93 % 0.25 mm 65 W/m2
11:36 3 °C 2 °C 999.9 hPa Calm     93 % 0.25 mm 51 W/m2
11:41 3.1 °C 2.1 °C 999.5 hPa Calm     93 % 0.25 mm 49 W/m2
11:46 3.1 °C 2.1 °C 999.5 hPa Calm     93 % 0.25 mm 49 W/m2
11:51 3.1 °C 2.1 °C 999.5 hPa Calm     93 % 0.25 mm 56 W/m2
11:56 3.1 °C 2.1 °C 999.5 hPa Calm     93 % 0.25 mm 62 W/m2
12:01 3.1 °C 2.1 °C 999.5 hPa Calm     93 % 0.25 mm 58 W/m2
12:06 3.1 °C 2.1 °C 999.2 hPa Calm     93 % 0.25 mm 47 W/m2
12:11 3.1 °C 2.1 °C 999.2 hPa Calm     93 % 0.25 mm 42 W/m2
12:16 3.1 °C 2.1 °C 999.5 hPa Calm     93 % 0.25 mm 37 W/m2
12:21 3.1 °C 2.1 °C 999.2 hPa Calm     93 % 0 mm 37 W/m2
12:26 3.1 °C 2.1 °C 999.2 hPa Calm     93 % 0 mm 39 W/m2
12:31 3.1 °C 2.1 °C 999.2 hPa Calm     93 % 0 mm 40 W/m2
12:36 3.1 °C 2.1 °C 999.2 hPa Calm     93 % 0 mm 39 W/m2
12:42 3.1 °C 2.2 °C 999.2 hPa Calm     94 % 0 mm 39 W/m2
12:47 3.1 °C 2.2 °C 999.2 hPa Calm     94 % 0 mm 42 W/m2
12:52 3.2 °C 2.3 °C 999.5 hPa Calm     94 % 0.25 mm 46 W/m2
12:57 3.2 °C 2.3 °C 999.2 hPa Calm     94 % 0.25 mm 46 W/m2
13:02 3.2 °C 2.3 °C 999.5 hPa Calm     94 % 0.25 mm 49 W/m2
13:07 3.2 °C 2.2 °C 999.5 hPa North 4.8 km/h 8 km/h 93 % 0.25 mm 54 W/m2
13:12 3.2 °C 2.2 °C 999.5 hPa North 1.6 km/h 6.4 km/h 93 % 0.25 mm 56 W/m2
13:17 3.2 °C 2.2 °C 999.5 hPa North 3.2 km/h 8 km/h 93 % 0.25 mm 49 W/m2
13:22 3.2 °C 2.3 °C 999.5 hPa Calm   3.2 km/h 94 % 0.25 mm 46 W/m2
13:27 3.3 °C 2.4 °C 999.5 hPa North 3.2 km/h 6.4 km/h 94 % 0.25 mm 46 W/m2
13:32 3.3 °C 2.4 °C 999.5 hPa Calm   3.2 km/h 94 % 0.51 mm 49 W/m2
13:37 3.3 °C 2.4 °C 999.5 hPa NW 4.8 km/h 9.7 km/h 94 % 0.51 mm 54 W/m2
13:42 3.3 °C 2.4 °C 999.5 hPa West 1.6 km/h 8 km/h 94 % 0.51 mm 70 W/m2
13:47 3.3 °C 2.4 °C 999.5 hPa Calm     94 % 0.51 mm 86 W/m2
13:52 3.3 °C 2.4 °C 999.5 hPa West 3.2 km/h 6.4 km/h 94 % 0.25 mm 118 W/m2
13:57 3.4 °C 2.5 °C 999.5 hPa West 4.8 km/h 8 km/h 94 % 0.25 mm 127 W/m2
14:02 3.4 °C 2.5 °C 999.5 hPa West 3.2 km/h 6.4 km/h 94 % 0.25 mm 118 W/m2
14:07 3.4 °C 2.5 °C 999.5 hPa West 1.6 km/h 6.4 km/h 94 % 0.25 mm 77 W/m2
14:12 3.4 °C 2.5 °C 999.5 hPa West 3.2 km/h 6.4 km/h 94 % 0.25 mm 65 W/m2
14:17 3.3 °C 2.4 °C 999.5 hPa Calm   4.8 km/h 94 % 0.25 mm 81 W/m2
14:22 3.3 °C 2.4 °C 999.5 hPa West 1.6 km/h 6.4 km/h 94 % 0.25 mm 60 W/m2
14:27 3.3 °C 2.4 °C 999.5 hPa West 3.2 km/h 6.4 km/h 94 % 0 mm 65 W/m2
14:32 3.3 °C 2.4 °C 999.5 hPa West 4.8 km/h 6.4 km/h 94 % 0 mm 178 W/m2
14:37 3.4 °C 2.5 °C 999.5 hPa West 1.6 km/h 4.8 km/h 94 % 0 mm 141 W/m2
14:42 3.6 °C 2.9 °C 999.9 hPa West 1.6 km/h 3.2 km/h 95 % 0 mm 70 W/m2
14:47 3.6 °C 2.7 °C 999.9 hPa West 1.6 km/h 3.2 km/h 94 % 0 mm 49 W/m2
14:52 3.6 °C 2.7 °C 999.9 hPa West 1.6 km/h 3.2 km/h 94 % 0 mm 60 W/m2
14:57 3.4 °C 2.4 °C 1000.2 hPa West 1.6 km/h 8 km/h 93 % 0 mm 54 W/m2
15:02 3.4 °C 2.4 °C 1000.2 hPa Calm   3.2 km/h 93 % 0 mm 32 W/m2
15:07 3.3 °C 2.3 °C 1000.2 hPa West 1.6 km/h 6.4 km/h 93 % 0 mm 35 W/m2
15:12 3.3 °C 2.3 °C 1000.2 hPa Calm     93 % 0 mm 42 W/m2
15:17 3.1 °C 2.1 °C 1000.6 hPa NW 4.8 km/h 9.7 km/h 93 % 0 mm 88 W/m2
15:22 3 °C 2 °C 1000.6 hPa NW 4.8 km/h 9.7 km/h 93 % 0 mm 37 W/m2
15:27 2.9 °C 1.9 °C 1000.6 hPa NW 4.8 km/h 9.7 km/h 93 % 0 mm 23 W/m2
15:32 2.8 °C 1.8 °C 1000.9 hPa NW 4.8 km/h 8 km/h 93 % 0 mm 23 W/m2
15:37 2.8 °C 1.8 °C 1000.9 hPa WNW 3.2 km/h 9.7 km/h 93 % 0 mm 23 W/m2
15:42 2.7 °C 1.8 °C 1000.9 hPa WNW 4.8 km/h 9.7 km/h 94 % 0 mm 21 W/m2
15:47 2.7 °C 1.8 °C 1000.9 hPa WNW 3.2 km/h 8 km/h 94 % 0 mm 18 W/m2
15:52 2.6 °C 1.7 °C 1001.2 hPa WNW 4.8 km/h 9.7 km/h 94 % 0 mm 18 W/m2
15:57 2.6 °C 1.6 °C 1001.2 hPa WNW 3.2 km/h 8 km/h 93 % 0 mm 21 W/m2
16:02 2.5 °C 1.6 °C 1001.2 hPa WNW 1.6 km/h 6.4 km/h 94 % 0 mm 21 W/m2
16:07 2.4 °C 1.6 °C 1001.6 hPa WNW 4.8 km/h 9.7 km/h 94 % 0 mm 16 W/m2
16:12 2.4 °C 1.6 °C 1001.6 hPa WNW 3.2 km/h 9.7 km/h 94 % 0 mm 12 W/m2
16:17 2.3 °C 1.4 °C 1001.6 hPa WNW 1.6 km/h 3.2 km/h 94 % 0 mm 9 W/m2
16:22 2.2 °C 1.3 °C 1001.6 hPa WNW 1.6 km/h 8 km/h 94 % 0 mm 5 W/m2
16:27 2.2 °C 1.3 °C 1001.9 hPa WNW 3.2 km/h 6.4 km/h 94 % 0 mm 0 W/m2
16:32 2.2 °C 1.3 °C 1001.9 hPa WNW 3.2 km/h 6.4 km/h 94 % 0 mm 0 W/m2
16:37 2.2 °C 1.3 °C 1001.9 hPa Calm     94 % 0 mm 0 W/m2
16:42 2.1 °C 1.2 °C 1002.3 hPa Calm     94 % 0 mm 0 W/m2
16:47 2.1 °C 1.2 °C 1002.3 hPa Calm     94 % 0 mm 0 W/m2
16:52 2 °C 1.1 °C 1002.3 hPa Calm     94 % 0 mm 0 W/m2
16:58 1.9 °C 1.1 °C 1002.3 hPa Calm     94 % 0 mm 0 W/m2
17:03 1.8 °C 0.9 °C 1002.6 hPa Calm     94 % 0 mm 0 W/m2
17:08 1.7 °C 0.8 °C 1002.6 hPa Calm     94 % 0 mm 0 W/m2
17:13 1.6 °C 0.7 °C 1002.9 hPa WNW 3.2 km/h 8 km/h 94 % 0 mm 0 W/m2
17:18 1.6 °C 0.7 °C 1002.9 hPa NW 4.8 km/h 9.7 km/h 94 % 0 mm 0 W/m2
17:23 1.7 °C 1 °C 1003.3 hPa NW 8 km/h 12.9 km/h 95 % 0 mm 0 W/m2
17:28 1.7 °C 1 °C 1003.3 hPa NW 6.4 km/h 9.7 km/h 95 % 0 mm 0 W/m2
17:33 1.7 °C 0.8 °C 1003.6 hPa NW 4.8 km/h 11.3 km/h 94 % 0 mm 0 W/m2
17:38 1.7 °C 0.8 °C 1003.6 hPa NW 6.4 km/h 12.9 km/h 94 % 0 mm 0 W/m2
17:43 1.6 °C 0.7 °C 1003.9 hPa WNW 4.8 km/h 12.9 km/h 94 % 0 mm 0 W/m2
17:48 1.6 °C 0.7 °C 1003.9 hPa WNW 8 km/h 11.3 km/h 94 % 0 mm 0 W/m2
17:53 1.6 °C 0.7 °C 1003.9 hPa NW 6.4 km/h 16.1 km/h 94 % 0 mm 0 W/m2
17:58 1.6 °C 0.7 °C 1004.3 hPa NW 6.4 km/h 9.7 km/h 94 % 0 mm 0 W/m2
18:03 1.5 °C 0.7 °C 1004.6 hPa NW 6.4 km/h 12.9 km/h 94 % 0 mm 0 W/m2
18:08 1.5 °C 0.7 °C 1004.6 hPa NW 6.4 km/h 11.3 km/h 94 % 0 mm 0 W/m2
18:13 1.5 °C 0.7 °C 1004.6 hPa NW 8 km/h 12.9 km/h 94 % 0 mm 0 W/m2
18:19 1.4 °C 0.6 °C 1004.6 hPa NW 8 km/h 11.3 km/h 94 % 0 mm 0 W/m2
18:24 1.4 °C 0.6 °C 1005 hPa NW 6.4 km/h 11.3 km/h 94 % 0 mm 0 W/m2
18:29 1.3 °C 0.4 °C 1005 hPa NW 6.4 km/h 11.3 km/h 94 % 0 mm 0 W/m2
18:34 1.3 °C 0.4 °C 1005 hPa NW 6.4 km/h 9.7 km/h 94 % 0 mm 0 W/m2
18:39 1.3 °C 0.4 °C 1005.3 hPa NW 6.4 km/h 12.9 km/h 94 % 0 mm 0 W/m2
18:44 1.3 °C 0.4 °C 1005.3 hPa NW 8 km/h 12.9 km/h 94 % 0 mm 0 W/m2
18:49 1.2 °C 0.3 °C 1005.3 hPa NW 8 km/h 12.9 km/h 94 % 0 mm 0 W/m2
18:54 1.2 °C 0.3 °C 1005.6 hPa NW 6.4 km/h 11.3 km/h 94 % 0 mm 0 W/m2
18:59 1.2 °C 0.3 °C 1005.6 hPa NNW 4.8 km/h 8 km/h 94 % 0 mm 0 W/m2
19:04 1.1 °C 0.1 °C 1006 hPa NW 6.4 km/h 9.7 km/h 93 % 0 mm 0 W/m2
19:09 1.1 °C 0.1 °C 1006 hPa NW 6.4 km/h 9.7 km/h 93 % 0 mm 0 W/m2
19:14 1.1 °C 0.2 °C 1006.3 hPa NW 6.4 km/h 12.9 km/h 94 % 0 mm 0 W/m2
19:19 1 °C 0 °C 1006.3 hPa WNW 8 km/h 12.9 km/h 93 % 0 mm 0 W/m2
19:24 0.9 °C -0.1 °C 1006.7 hPa WNW 8 km/h 14.5 km/h 93 % 0 mm 0 W/m2
19:29 0.9 °C -0.1 °C 1006.7 hPa WNW 8 km/h 14.5 km/h 93 % 0 mm 0 W/m2
19:34 0.9 °C -0.1 °C 1006.7 hPa NW 8 km/h 12.9 km/h 93 % 0 mm 0 W/m2
19:39 0.9 °C -0.1 °C 1007 hPa WNW 8 km/h 12.9 km/h 93 % 0 mm 0 W/m2
19:44 0.8 °C -0.2 °C 1007 hPa NW 8 km/h 12.9 km/h 93 % 0 mm 0 W/m2
19:49 0.8 °C -0.2 °C 1007 hPa WNW 9.7 km/h 14.5 km/h 93 % 0 mm 0 W/m2
19:54 0.8 °C -0.2 °C 1007.3 hPa WNW 9.7 km/h 16.1 km/h 93 % 0 mm 0 W/m2
19:59 0.8 °C -0.2 °C 1007.3 hPa NW 8 km/h 14.5 km/h 93 % 0 mm 0 W/m2
20:04 0.8 °C -0.2 °C 1007.3 hPa NW 9.7 km/h 16.1 km/h 93 % 0 mm 0 W/m2
20:09 0.8 °C -0.2 °C 1007.3 hPa NW 11.3 km/h 16.1 km/h 93 % 0 mm 0 W/m2
20:14 0.8 °C -0.2 °C 1007.7 hPa WNW 9.7 km/h 11.3 km/h 93 % 0 mm 0 W/m2
20:19 0.8 °C -0.2 °C 1007.7 hPa WNW 8 km/h 14.5 km/h 93 % 0 mm 0 W/m2
20:24 0.8 °C -0.2 °C 1007.7 hPa WNW 8 km/h 14.5 km/h 93 % 0 mm 0 W/m2
20:30 0.8 °C -0.2 °C 1007.7 hPa WNW 8 km/h 11.3 km/h 93 % 0 mm 0 W/m2
20:34 0.8 °C -0.2 °C 1007.7 hPa WNW 8 km/h 11.3 km/h 93 % 0 mm 0 W/m2
20:40 0.7 °C -0.3 °C 1008 hPa WNW 9.7 km/h 11.3 km/h 93 % 0 mm 0 W/m2
20:45 0.6 °C -0.4 °C 1008 hPa WNW 9.7 km/h 12.9 km/h 93 % 0 mm 0 W/m2
20:50 0.6 °C -0.4 °C 1008 hPa NW 6.4 km/h 11.3 km/h 93 % 0 mm 0 W/m2
20:55 0.6 °C -0.4 °C 1008 hPa WNW 9.7 km/h 12.9 km/h 93 % 0 mm 0 W/m2
21:00 0.6 °C -0.3 °C 1008.4 hPa WNW 9.7 km/h 16.1 km/h 94 % 0 mm 0 W/m2
21:05 0.6 °C -0.4 °C 1008.4 hPa WNW 9.7 km/h 16.1 km/h 93 % 0 mm 0 W/m2
21:10 0.6 °C -0.4 °C 1008.4 hPa WNW 8 km/h 12.9 km/h 93 % 0 mm 0 W/m2
21:15 0.6 °C -0.3 °C 1008.4 hPa NW 8 km/h 12.9 km/h 94 % 0 mm 0 W/m2
21:20 0.6 °C -0.3 °C 1008.7 hPa WNW 6.4 km/h 11.3 km/h 94 % 0 mm 0 W/m2
21:25 0.6 °C -0.4 °C 1008.7 hPa NW 8 km/h 12.9 km/h 93 % 0 mm 0 W/m2
21:30 0.6 °C -0.4 °C 1008.7 hPa WNW 8 km/h 14.5 km/h 93 % 0 mm 0 W/m2
21:35 0.6 °C -0.4 °C 1008.7 hPa WNW 9.7 km/h 12.9 km/h 93 % 0 mm 0 W/m2
21:40 0.6 °C -0.3 °C 1009 hPa WNW 11.3 km/h 14.5 km/h 94 % 0 mm 0 W/m2
21:45 0.6 °C -0.3 °C 1009 hPa WNW 9.7 km/h 12.9 km/h 94 % 0 mm 0 W/m2
21:50 0.6 °C -0.4 °C 1009 hPa NW 9.7 km/h 16.1 km/h 93 % 0 mm 0 W/m2
21:55 0.6 °C -0.4 °C 1009 hPa WNW 9.7 km/h 14.5 km/h 93 % 0 mm 0 W/m2
22:00 0.6 °C -0.4 °C 1009 hPa NW 9.7 km/h 12.9 km/h 93 % 0 mm 0 W/m2
22:05 0.6 °C -0.3 °C 1009.4 hPa NW 9.7 km/h 14.5 km/h 94 % 0 mm 0 W/m2
22:10 0.6 °C -0.3 °C 1009.4 hPa WNW 8 km/h 17.7 km/h 94 % 0 mm 0 W/m2
22:15 0.6 °C -0.4 °C 1009.4 hPa WNW 8 km/h 12.9 km/h 93 % 0 mm 0 W/m2
22:20 0.6 °C -0.4 °C 1009.7 hPa WNW 8 km/h 14.5 km/h 93 % 0 mm 0 W/m2
22:25 0.5 °C -0.5 °C 1009.7 hPa WNW 3.2 km/h 3.2 km/h 93 % 0 mm 0 W/m2
22:30 0.3 °C -0.8 °C 1009.7 hPa WNW 1.6 km/h 6.4 km/h 92 % 0 mm 0 W/m2
22:35 0.2 °C -0.9 °C 1010 hPa WNW 3.2 km/h 4.8 km/h 92 % 0 mm 0 W/m2
22:40 0.1 °C -1.1 °C 1010 hPa WNW 4.8 km/h 9.7 km/h 92 % 0 mm 0 W/m2
22:46 -0.1 °C -1.2 °C 1010.4 hPa WNW 6.4 km/h 11.3 km/h 92 % 0 mm 0 W/m2
22:50 -0.1 °C -1.1 °C 1010.4 hPa WNW 3.2 km/h 8 km/h 93 % 0 mm 0 W/m2
22:56 -0.1 °C -1.1 °C 1010.4 hPa WNW 8 km/h 12.9 km/h 93 % 0 mm 0 W/m2
23:01 0.1 °C -0.9 °C 1010.4 hPa WNW 8 km/h 14.5 km/h 93 % 0 mm 0 W/m2
23:06 0.1 °C -0.9 °C 1010.4 hPa WNW 8 km/h 12.9 km/h 93 % 0 mm 0 W/m2
23:11 0.1 °C -0.9 °C 1010.4 hPa WNW 4.8 km/h 9.7 km/h 93 % 0 mm 0 W/m2
23:16 0.1 °C -0.9 °C 1010.4 hPa West 3.2 km/h 6.4 km/h 93 % 0 mm 0 W/m2
23:21 0.1 °C -0.9 °C 1010.4 hPa Calm     93 % 0 mm 0 W/m2
23:26 -0.1 °C -1.2 °C 1010.7 hPa Calm     92 % 0 mm 0 W/m2
23:31 -0.2 °C -1.3 °C 1010.7 hPa Calm     92 % 0 mm 0 W/m2
23:36 -0.4 °C -1.6 °C 1010.7 hPa Calm   1.6 km/h 92 % 0 mm 0 W/m2
23:41 -0.6 °C -1.7 °C 1011.1 hPa Calm     92 % 0 mm 0 W/m2
23:46 -0.7 °C -1.8 °C 1011.1 hPa Calm     92 % 0 mm 0 W/m2
23:51 -0.7 °C -1.7 °C 1011.1 hPa Calm     93 % 0 mm 0 W/m2
23:56 -0.8 °C -1.8 °C 1010.7 hPa Calm   1.6 km/h 93 % 0 mm 0 W/m2
Delerius-Weather
Compliments of Weather Underground - 2.25 mb

Data updates at regular intervals.